Time;durP1;ratioP1;P1;durP2;ratioP2;P2;SDS_P1;SDS_P2;PMS_P1;PMS_P2;Temp;Humidity;BMP_temperature;BMP_pressure;BME280_temperature;BME280_humidity;BME280_pressure;Samples;Min_cycle;Max_cycle;Signal;HPM_P1;HPM_P2
2020/12/04 00:01:16;;;;;;;10.88;8.20;;;;;;;5.03;91.53;96578.75;5072310;28;20716;-63
2020/12/04 00:03:45;;;;;;;9.43;6.85;;;;;;;5.06;91.56;96572.31;5072594;28;20187;-63
2020/12/04 00:06:14;;;;;;;8.90;6.38;;;;;;;5.09;91.89;96570.25;5072284;28;20206;-63
2020/12/04 00:08:40;;;;;;;9.27;7.53;;;;;;;5.03;91.64;96556.56;5080295;28;20218;-62
2020/12/04 00:11:07;;;;;;;8.82;7.10;;;;;;;5.15;90.44;96563.53;5092391;28;20182;-61
2020/12/04 00:13:33;;;;;;;8.75;6.93;;;;;;;5.08;90.23;96557.84;5073201;28;20200;-62
2020/12/04 00:16:00;;;;;;;9.50;7.40;;;;;;;5.10;89.71;96549.75;5077015;28;20623;-62
2020/12/04 00:18:29;;;;;;;9.18;7.28;;;;;;;5.11;88.98;96538.97;5092379;28;20198;-62
2020/12/04 00:20:55;;;;;;;7.25;6.43;;;;;;;5.12;89.62;96545.97;5092008;28;20203;-62
2020/12/04 00:23:21;;;;;;;8.40;7.45;;;;;;;5.09;89.41;96534.69;5092080;28;20275;-62
2020/12/04 00:25:47;;;;;;;10.55;7.55;;;;;;;5.10;88.94;96534.56;5092026;28;20186;-61
2020/12/04 00:28:14;;;;;;;9.70;7.60;;;;;;;4.98;89.24;96525.81;5077159;28;20201;-63
2020/12/04 00:30:41;;;;;;;10.00;8.05;;;;;;;5.07;89.74;96537.50;5071900;28;20217;-62
2020/12/04 00:33:07;;;;;;;10.63;8.00;;;;;;;5.02;89.63;96513.06;5071859;28;20282;-62
2020/12/04 00:35:33;;;;;;;11.45;8.27;;;;;;;5.00;88.95;96523.84;5072183;28;20213;-62
2020/12/04 00:37:59;;;;;;;11.57;7.55;;;;;;;4.81;89.60;96505.88;5072221;28;20191;-62
2020/12/04 00:40:25;;;;;;;10.70;7.80;;;;;;;4.87;90.91;96514.34;5072342;28;20279;-62
2020/12/04 00:42:51;;;;;;;11.50;8.45;;;;;;;4.85;90.06;96509.16;5076317;28;20557;-62
2020/12/04 00:45:19;;;;;;;10.10;7.50;;;;;;;4.79;90.99;96515.84;5076600;28;20205;-63
2020/12/04 00:47:45;;;;;;;10.13;7.68;;;;;;;4.88;90.87;96519.53;5076263;28;20191;-63
2020/12/04 00:50:12;;;;;;;9.38;7.55;;;;;;;4.96;91.14;96502.91;5075743;28;20228;-62
2020/12/04 00:52:38;;;;;;;9.77;7.45;;;;;;;4.88;90.29;96510.72;5075596;28;20193;-62
2020/12/04 00:55:04;;;;;;;10.20;7.60;;;;;;;4.98;89.67;96498.31;5076067;28;20272;-62
2020/12/04 00:57:30;;;;;;;10.32;7.72;;;;;;;4.91;90.16;96505.13;5075572;28;20202;-62
2020/12/04 00:59:56;;;;;;;9.40;7.57;;;;;;;4.89;90.70;96493.75;5075694;28;20697;-62
2020/12/04 01:02:23;;;;;;;13.85;8.40;;;;;;;4.99;90.39;96497.31;5075599;28;20287;-61
2020/12/04 01:04:49;;;;;;;12.15;8.30;;;;;;;4.99;90.74;96494.66;5076113;28;20209;-63
2020/12/04 01:07:15;;;;;;;11.23;8.48;;;;;;;4.84;91.57;96482.63;5075843;28;20694;-63
2020/12/04 01:09:41;;;;;;;11.63;7.88;;;;;;;4.97;91.99;96478.78;5075455;28;20226;-62
2020/12/04 01:12:08;;;;;;;10.70;8.20;;;;;;;4.92;92.21;96473.00;5074956;28;20193;-62
2020/12/04 01:14:34;;;;;;;10.43;7.78;;;;;;;5.12;90.80;96481.97;5075617;28;20198;-62
2020/12/04 01:17:00;;;;;;;9.73;7.85;;;;;;;4.96;91.69;96474.44;5075620;28;20595;-62
2020/12/04 01:19:27;;;;;;;7.68;6.55;;;;;;;5.05;91.61;96485.31;5075001;28;20293;-62
2020/12/04 01:21:53;;;;;;;8.50;7.28;;;;;;;4.96;92.20;96473.59;5075496;28;20283;-61
2020/12/04 01:24:19;;;;;;;9.55;7.28;;;;;;;4.93;93.28;96473.84;5075512;28;20274;-62
2020/12/04 01:26:46;;;;;;;8.82;7.20;;;;;;;5.03;92.67;96469.41;5075405;28;20696;-62
2020/12/04 01:29:12;;;;;;;9.23;7.68;;;;;;;5.06;92.61;96476.31;5075265;28;20554;-62
2020/12/04 01:31:38;;;;;;;9.48;7.22;;;;;;;5.10;92.24;96475.91;5075073;28;20189;-63
2020/12/04 01:34:04;;;;;;;9.63;7.63;;;;;;;5.21;92.20;96467.84;5075238;28;20659;-62
2020/12/04 01:36:31;;;;;;;8.98;7.00;;;;;;;5.17;91.97;96462.91;5075131;28;20207;-62
2020/12/04 01:38:57;;;;;;;8.70;6.50;;;;;;;5.11;92.67;96474.09;5074800;28;20276;-63
2020/12/04 01:41:23;;;;;;;9.30;7.22;;;;;;;5.11;93.31;96474.97;5075028;28;20199;-63
2020/12/04 01:43:50;;;;;;;10.18;7.45;;;;;;;5.13;94.09;96473.00;5075049;28;20212;-62
2020/12/04 01:46:17;;;;;;;9.15;6.80;;;;;;;5.03;94.72;96479.25;5075181;28;20184;-61
2020/12/04 01:48:44;;;;;;;11.80;7.97;;;;;;;5.14;95.01;96466.69;5089313;28;20588;-63
2020/12/04 01:51:11;;;;;;;9.25;7.15;;;;;;;5.17;95.11;96474.41;5094776;28;20213;-61
2020/12/04 01:53:40;;;;;;;9.88;7.15;;;;;;;5.20;95.13;96467.97;5095258;28;20277;-62
2020/12/04 01:56:06;;;;;;;9.20;7.03;;;;;;;5.25;95.07;96470.25;5095024;28;20226;-62
2020/12/04 01:58:32;;;;;;;10.90;7.20;;;;;;;5.31;94.59;96469.72;5094854;28;20591;-62
2020/12/04 02:00:59;;;;;;;8.75;6.88;;;;;;;5.34;94.08;96458.78;5094658;28;20205;-63
2020/12/04 02:03:25;;;;;;;10.93;7.53;;;;;;;5.34;95.07;96453.44;5088416;28;20593;-63
2020/12/04 02:05:58;;;;;;;9.15;6.85;;;;;;;5.35;95.20;96450.63;5074250;28;20187;-62
2020/12/04 02:08:30;;;;;;;8.93;7.10;;;;;;;5.30;95.14;96465.38;5074075;28;20204;-63
2020/12/04 02:11:06;;;;;;;6.32;5.68;;;;;;;5.27;94.43;96461.16;5074222;28;20207;-63
2020/12/04 02:13:33;;;;;;;7.47;6.38;;;;;;;5.39;94.50;96456.56;5078030;28;20191;-63
2020/12/04 02:16:00;;;;;;;8.50;6.38;;;;;;;5.33;95.02;96441.06;5074446;28;20308;-63
2020/12/04 02:18:26;;;;;;;7.85;6.90;;;;;;;5.42;95.06;96441.09;5074152;28;20184;-61
2020/12/04 02:21:00;;;;;;;6.45;5.55;;;;;;;5.38;95.17;96446.84;5074230;28;20276;-63
2020/12/04 02:23:27;;;;;;;6.95;5.07;;;;;;;5.40;95.68;96436.88;5074005;28;20196;-63
2020/12/04 02:25:56;;;;;;;8.10;6.18;;;;;;;5.51;95.20;96425.28;5074427;28;20583;-61
2020/12/04 02:28:33;;;;;;;8.15;5.55;;;;;;;5.47;95.47;96426.53;5084925;28;20547;-62
2020/12/04 02:31:00;;;;;;;8.85;5.38;;;;;;;5.60;95.16;96421.81;5074134;28;20329;-62
2020/12/04 02:33:26;;;;;;;7.97;5.80;;;;;;;5.55;95.35;96419.53;5074171;28;20542;-63
2020/12/04 02:35:52;;;;;;;6.10;5.00;;;;;;;5.60;95.70;96406.63;5074335;28;20195;-62
2020/12/04 02:38:19;;;;;;;8.07;5.50;;;;;;;5.56;96.08;96397.22;5073660;28;20197;-62
2020/12/04 02:40:45;;;;;;;5.43;4.50;;;;;;;5.67;96.24;96401.59;5074145;28;20184;-62
2020/12/04 02:43:12;;;;;;;5.38;3.90;;;;;;;5.69;96.29;96380.94;5074343;28;20235;-62
2020/12/04 02:45:38;;;;;;;5.00;3.53;;;;;;;5.79;96.05;96389.81;5083607;28;20949;-61
2020/12/04 02:48:04;;;;;;;4.57;3.42;;;;;;;5.85;96.32;96399.09;5094379;28;20184;-62
2020/12/04 02:50:30;;;;;;;2.65;2.42;;;;;;;6.00;95.69;96392.41;5093675;28;20849;-61
2020/12/04 02:52:56;;;;;;;2.80;2.30;;;;;;;6.19;94.86;96383.56;5093772;28;20191;-61
2020/12/04 02:55:23;;;;;;;2.25;2.05;;;;;;;6.35;92.97;96380.31;5080471;28;20188;-62
2020/12/04 02:57:49;;;;;;;1.75;1.58;;;;;;;6.44;92.58;96379.50;5073444;28;20200;-63
2020/12/04 03:00:15;;;;;;;1.85;1.70;;;;;;;6.56;91.96;96379.34;5073269;28;20318;-63
2020/12/04 03:02:41;;;;;;;1.85;1.75;;;;;;;6.63;91.35;96383.97;5073480;28;20287;-62
2020/12/04 03:05:07;;;;;;;1.70;1.50;;;;;;;6.70;91.46;96384.22;5073053;28;20204;-63
2020/12/04 03:07:34;;;;;;;1.88;1.42;;;;;;;6.66;91.36;96367.63;5073190;28;20275;-62
2020/12/04 03:10:00;;;;;;;1.40;1.02;;;;;;;6.77;89.60;96366.63;5073212;28;20327;-62
2020/12/04 03:12:27;;;;;;;1.65;1.55;;;;;;;6.86;89.84;96373.78;5073297;28;20271;-62
2020/12/04 03:14:53;;;;;;;1.30;0.98;;;;;;;6.89;89.10;96369.97;5072823;28;20287;-63
2020/12/04 03:17:19;;;;;;;1.20;1.10;;;;;;;6.86;89.67;96365.75;5076850;28;20185;-62
2020/12/04 03:19:45;;;;;;;1.40;1.00;;;;;;;6.93;89.41;96368.69;5073168;28;20608;-63
2020/12/04 03:22:11;;;;;;;1.48;1.10;;;;;;;6.96;88.99;96362.19;5072816;28;20205;-61
2020/12/04 03:24:37;;;;;;;1.38;1.27;;;;;;;6.97;88.35;96367.41;5073000;28;20185;-62
2020/12/04 03:27:03;;;;;;;1.65;1.13;;;;;;;7.01;88.65;96365.28;5073154;28;20568;-62
2020/12/04 03:29:30;;;;;;;2.70;1.00;;;;;;;7.01;88.18;96357.25;5073112;28;20217;-63
2020/12/04 03:31:56;;;;;;;1.00;0.93;;;;;;;7.04;88.57;96354.31;5072882;28;20280;-62
2020/12/04 03:34:23;;;;;;;2.03;1.15;;;;;;;7.05;88.01;96355.97;5073070;28;20200;-62
2020/12/04 03:36:49;;;;;;;1.75;1.00;;;;;;;7.03;88.61;96363.31;5073123;28;20185;-62
2020/12/04 03:39:15;;;;;;;1.30;0.90;;;;;;;7.07;88.16;96365.53;5072774;28;20726;-62
2020/12/04 03:41:41;;;;;;;1.02;0.80;;;;;;;7.09;88.63;96363.56;5072499;28;20234;-62
2020/12/04 03:44:07;;;;;;;2.15;1.30;;;;;;;7.13;87.78;96345.41;5092691;28;20184;-62
2020/12/04 03:46:34;;;;;;;1.20;1.10;;;;;;;7.16;86.76;96363.81;5078271;28;20228;-62
2020/12/04 03:49:00;;;;;;;1.50;1.27;;;;;;;7.22;87.20;96365.91;5072528;28;20185;-63
2020/12/04 03:51:27;;;;;;;1.13;1.02;;;;;;;7.22;86.45;96371.25;5072416;28;20291;-62
2020/12/04 03:53:53;;;;;;;1.00;0.70;;;;;;;7.24;86.90;96369.28;5072273;28;20266;-61
2020/12/04 03:56:19;;;;;;;1.15;1.05;;;;;;;7.21;86.91;96366.06;5072706;28;20261;-63
2020/12/04 03:58:45;;;;;;;1.60;0.88;;;;;;;7.26;86.46;96370.00;5071940;28;20243;-62
2020/12/04 04:01:11;;;;;;;1.00;0.90;;;;;;;7.30;86.35;96382.09;5072218;28;20295;-62
2020/12/04 04:03:38;;;;;;;1.98;1.10;;;;;;;7.27;86.45;96371.66;5072475;28;20283;-62
2020/12/04 04:06:04;;;;;;;2.58;1.20;;;;;;;7.44;85.22;96374.53;5072616;28;20185;-62
2020/12/04 04:08:30;;;;;;;1.30;0.90;;;;;;;7.41;85.47;96361.47;5071943;28;20206;-62
2020/12/04 04:10:59;;;;;;;1.65;1.55;;;;;;;7.40;85.99;96374.00;5072240;28;20307;-62
2020/12/04 04:13:25;;;;;;;1.38;0.88;;;;;;;7.51;85.87;96372.97;5066412;28;20280;-63
2020/12/04 04:15:51;;;;;;;1.00;0.90;;;;;;;7.48;85.43;96382.16;5071100;28;20201;-62
2020/12/04 04:18:17;;;;;;;0.90;0.80;;;;;;;7.48;86.16;96378.59;5072174;28;20279;-63
2020/12/04 04:20:44;;;;;;;1.63;1.30;;;;;;;7.39;87.08;96392.88;5071833;28;20197;-62
2020/12/04 04:23:10;;;;;;;1.58;1.00;;;;;;;7.39;86.73;96374.16;5072265;28;20284;-62
2020/12/04 04:25:36;;;;;;;1.13;0.90;;;;;;;7.42;87.00;96374.72;5071810;28;20211;-63
2020/12/04 04:28:02;;;;;;;1.52;0.80;;;;;;;7.42;87.46;96384.56;5072233;28;20593;-62
2020/12/04 04:30:28;;;;;;;1.65;0.90;;;;;;;7.35;88.06;96387.00;5071515;28;20205;-62
2020/12/04 04:32:55;;;;;;;1.50;0.82;;;;;;;7.39;88.06;96385.69;5072034;28;20709;-64
2020/12/04 04:35:21;;;;;;;1.20;1.10;;;;;;;7.42;87.30;96393.44;5071622;28;20378;-62
2020/12/04 04:37:48;;;;;;;3.30;1.13;;;;;;;7.46;87.15;96393.97;5071588;28;20573;-63
2020/12/04 04:40:15;;;;;;;1.00;0.90;;;;;;;7.38;87.48;96392.03;5072284;28;20272;-63
2020/12/04 04:42:41;;;;;;;1.25;1.15;;;;;;;7.40;86.35;96392.75;5082192;28;20550;-62
2020/12/04 04:45:08;;;;;;;2.65;1.10;;;;;;;7.47;86.64;96398.34;5085848;28;20220;-62
2020/12/04 04:47:39;;;;;;;1.30;1.20;;;;;;;7.43;87.44;96396.94;5071704;28;20193;-63
2020/12/04 04:50:05;;;;;;;1.17;0.90;;;;;;;7.43;86.70;96388.91;5071484;28;20326;-62
2020/12/04 04:52:34;;;;;;;1.00;0.90;;;;;;;7.48;86.04;96383.97;5071427;28;20292;-63
2020/12/04 04:55:02;;;;;;;1.05;0.95;;;;;;;7.48;86.45;96389.31;5071709;28;20279;-63
2020/12/04 04:57:28;;;;;;;1.58;1.10;;;;;;;7.56;86.40;96399.28;5071879;28;20309;-62
2020/12/04 04:59:54;;;;;;;1.00;0.80;;;;;;;7.52;86.01;96399.56;5071538;28;20227;-62
2020/12/04 05:02:20;;;;;;;0.80;0.80;;;;;;;7.58;85.41;96405.34;5071063;28;20199;-62
2020/12/04 05:04:51;;;;;;;1.55;1.10;;;;;;;7.42;87.09;96412.19;5075018;28;20279;-63
2020/12/04 05:07:18;;;;;;;1.02;0.93;;;;;;;7.58;86.08;96408.03;5091029;28;20271;-62
2020/12/04 05:09:45;;;;;;;1.35;1.15;;;;;;;7.49;85.38;96399.88;5091855;28;20306;-62
2020/12/04 05:12:16;;;;;;;2.10;1.00;;;;;;;7.36;87.73;96390.50;5092011;28;20532;-61
2020/12/04 05:14:42;;;;;;;1.20;1.10;;;;;;;7.43;87.72;96392.44;5091586;28;20271;-62
2020/12/04 05:17:09;;;;;;;1.60;0.80;;;;;;;7.40;87.93;96391.91;5091763;28;20204;-62
2020/12/04 05:19:36;;;;;;;1.83;0.90;;;;;;;7.36;87.28;96396.69;5091950;28;20188;-63
2020/12/04 05:22:10;;;;;;;2.15;1.90;;;;;;;7.42;87.49;96385.41;5091318;28;20235;-63
2020/12/04 05:24:37;;;;;;;1.55;0.90;;;;;;;7.38;87.74;96375.16;5091709;28;20542;-63
2020/12/04 05:27:22;;;;;;;2.78;1.17;;;;;;;7.44;87.32;96387.91;5093260;28;20272;-63
2020/12/04 05:29:48;;;;;;;0.95;0.70;;;;;;;7.54;86.96;96399.44;5054955;28;20206;-63
2020/12/04 05:32:15;;;;;;;2.40;1.10;;;;;;;7.32;86.66;96392.63;5073583;28;20286;-64
2020/12/04 05:34:41;;;;;;;1.10;1.00;;;;;;;7.47;86.98;96390.31;5095763;28;20210;-63
2020/12/04 05:37:09;;;;;;;2.20;0.80;;;;;;;7.43;86.29;96418.38;5095730;28;20227;-63
2020/12/04 05:39:41;;;;;;;1.60;1.00;;;;;;;7.50;86.47;96408.75;5095112;28;20204;-62
2020/12/04 05:42:08;;;;;;;1.20;1.08;;;;;;;7.47;85.79;96401.84;5095363;28;20564;-63
2020/12/04 05:44:51;;;;;;;2.50;1.23;;;;;;;7.51;85.80;96411.28;5095166;28;20180;-63
2020/12/04 05:47:18;;;;;;;1.75;1.08;;;;;;;7.56;85.62;96413.53;5095013;28;20271;-62
2020/12/04 05:49:45;;;;;;;1.50;1.00;;;;;;;7.51;85.29;96413.13;5095384;28;20216;-62
2020/12/04 05:52:14;;;;;;;2.90;1.65;;;;;;;7.60;84.93;96404.22;5094906;28;20311;-63
2020/12/04 05:54:42;;;;;;;0.90;0.80;;;;;;;7.53;84.10;96400.44;5078792;28;20583;-62
2020/12/04 05:57:08;;;;;;;2.00;1.35;;;;;;;7.63;83.86;96406.56;5074456;28;20189;-62
2020/12/04 05:59:36;;;;;;;1.30;1.20;;;;;;;7.59;84.62;96405.19;5074221;28;20231;-62
2020/12/04 06:02:02;;;;;;;1.35;0.85;;;;;;;7.51;84.93;96422.00;5077513;28;20199;-62
2020/12/04 06:04:29;;;;;;;1.20;0.90;;;;;;;7.55;83.83;96419.84;5094507;28;20279;-62
2020/12/04 06:06:55;;;;;;;1.00;0.90;;;;;;;7.44;84.05;96414.69;5094839;28;20202;-62
2020/12/04 06:09:22;;;;;;;1.80;0.90;;;;;;;7.45;84.43;96417.22;5094628;28;20206;-62
2020/12/04 06:11:48;;;;;;;1.50;1.40;;;;;;;7.53;84.22;96419.19;5094553;28;20207;-63
2020/12/04 06:14:15;;;;;;;1.55;1.30;;;;;;;7.57;83.90;96417.03;5094391;28;20275;-63
2020/12/04 06:16:42;;;;;;;0.90;0.80;;;;;;;7.48;83.61;96427.66;5089726;28;20552;-62
2020/12/04 06:19:36;;;;;;;1.20;1.00;;;;;;;7.62;83.56;96434.34;5075087;28;20284;-61
2020/12/04 06:22:04;;;;;;;1.15;0.80;;;;;;;7.57;83.21;96425.06;5060736;28;20201;-63
2020/12/04 06:24:31;;;;;;;1.23;1.13;;;;;;;7.50;83.73;96417.63;5073500;28;20258;-61
2020/12/04 06:26:57;;;;;;;1.20;1.10;;;;;;;7.55;83.48;96422.53;5072959;28;20189;-62
2020/12/04 06:29:23;;;;;;;1.75;1.33;;;;;;;7.56;84.00;96418.88;5073412;28;20200;-61
2020/12/04 06:31:51;;;;;;;2.05;1.58;;;;;;;7.58;83.69;96414.22;5072943;28;20279;-63
2020/12/04 06:34:19;;;;;;;1.70;1.38;;;;;;;7.66;82.94;96416.97;5073204;28;20181;-64
2020/12/04 06:36:46;;;;;;;18.15;10.00;;;;;;;7.72;83.19;96412.88;5073280;28;20204;-64
2020/12/04 06:39:28;;;;;;;2.38;1.65;;;;;;;7.67;83.51;96410.66;5072550;28;20614;-63
2020/12/04 06:41:54;;;;;;;4.65;1.90;;;;;;;7.67;82.69;96416.00;5073440;28;20192;-63
2020/12/04 06:44:22;;;;;;;1.90;1.10;;;;;;;7.71;82.11;96417.41;5079827;28;20188;-63
2020/12/04 06:46:50;;;;;;;1.88;1.73;;;;;;;7.69;82.97;96427.41;5092675;28;20196;-62
2020/12/04 06:52:13;;;;;;;1.05;0.90;;;;;;;7.47;83.67;96427.78;5093204;28;20625;-64
2020/12/04 06:54:40;;;;;;;1.35;1.25;;;;;;;7.56;83.50;96429.56;5053337;28;20191;-62
2020/12/04 06:57:07;;;;;;;2.28;2.08;;;;;;;7.65;83.67;96427.84;5053101;28;20277;-62
2020/12/04 06:59:35;;;;;;;3.42;1.30;;;;;;;7.51;83.46;96431.88;5052615;28;20232;-62
2020/12/04 07:02:07;;;;;;;2.30;2.10;;;;;;;7.66;83.28;96441.06;5052861;28;20208;-61
2020/12/04 07:04:35;;;;;;;3.00;1.52;;;;;;;7.53;83.58;96429.88;5070847;28;20197;-62
2020/12/04 07:07:03;;;;;;;2.00;1.38;;;;;;;7.63;83.26;96433.34;5073206;28;20197;-63
2020/12/04 07:09:29;;;;;;;1.65;1.50;;;;;;;7.56;83.73;96424.22;5072252;28;20196;-63
2020/12/04 07:11:58;;;;;;;2.88;1.50;;;;;;;7.56;83.70;96439.44;5072721;28;20201;-62
2020/12/04 07:14:24;;;;;;;3.55;1.90;;;;;;;7.60;84.28;96438.16;5072641;28;20200;-63
2020/12/04 07:16:51;;;;;;;1.45;1.35;;;;;;;7.61;82.95;96435.31;5073275;28;20279;-63
2020/12/04 07:19:19;;;;;;;2.75;2.55;;;;;;;7.79;83.04;96445.25;5072564;28;20211;-62
2020/12/04 07:21:45;;;;;;;1.38;1.27;;;;;;;7.64;82.79;96455.59;5077515;28;20586;-63
2020/12/04 07:24:11;;;;;;;2.38;1.83;;;;;;;7.64;83.46;96469.84;5072809;28;20184;-62
2020/12/04 07:26:42;;;;;;;1.70;1.60;;;;;;;7.67;83.24;96469.56;5072602;28;20283;-62
2020/12/04 07:29:10;;;;;;;2.08;1.20;;;;;;;7.51;82.67;96466.66;5072706;28;20195;-62
2020/12/04 07:31:45;;;;;;;4.35;2.47;;;;;;;7.56;83.37;96480.44;5072206;28;20224;-63
2020/12/04 07:34:12;;;;;;;2.13;1.35;;;;;;;7.59;83.49;96476.63;5072637;28;20533;-62
2020/12/04 07:36:49;;;;;;;1.60;1.50;;;;;;;7.65;82.54;96476.03;5072004;28;20279;-63
2020/12/04 07:39:25;;;;;;;2.45;1.42;;;;;;;7.61;82.74;96478.16;5072061;28;20254;-62
2020/12/04 07:41:52;;;;;;;2.70;1.45;;;;;;;7.65;83.14;96487.59;5072265;28;20200;-63
2020/12/04 07:44:18;;;;;;;3.05;1.60;;;;;;;7.65;82.78;96484.91;5072034;28;20206;-63
2020/12/04 07:46:44;;;;;;;2.47;1.63;;;;;;;7.75;83.20;96495.59;5071908;28;20291;-64
2020/12/04 07:49:12;;;;;;;4.22;1.45;;;;;;;7.66;82.78;96486.59;5072129;28;20232;-62
2020/12/04 07:51:41;;;;;;;1.80;1.60;;;;;;;7.61;83.31;96491.56;5072031;28;20629;-63
2020/12/04 07:54:19;;;;;;;1.98;1.80;;;;;;;7.77;83.16;96482.88;5072029;28;20618;-61
2020/12/04 07:56:51;;;;;;;2.00;1.80;;;;;;;7.84;82.62;96483.97;5071752;28;20282;-62
2020/12/04 07:59:20;;;;;;;8.02;5.50;;;;;;;7.72;82.85;96483.34;5071799;28;20240;-63
2020/12/04 08:01:46;;;;;;;2.08;1.83;;;;;;;7.67;83.94;96496.31;5071126;28;20284;-63
2020/12/04 08:04:18;;;;;;;2.85;1.70;;;;;;;7.78;83.86;96481.03;5071641;28;20276;-63
2020/12/04 08:06:45;;;;;;;2.03;1.73;;;;;;;7.68;83.36;96483.78;5072012;28;20189;-62
2020/12/04 08:09:14;;;;;;;2.10;1.70;;;;;;;7.67;83.32;96488.28;5071529;28;20208;-63
2020/12/04 08:11:50;;;;;;;2.17;1.60;;;;;;;7.69;83.46;96499.72;5071455;28;20273;-62
2020/12/04 08:14:23;;;;;;;2.22;1.70;;;;;;;7.70;83.56;96476.44;5071863;28;20211;-63
2020/12/04 08:16:53;;;;;;;3.40;2.55;;;;;;;7.72;83.11;96472.63;5071811;28;20651;-63
2020/12/04 08:19:19;;;;;;;1.60;1.50;;;;;;;7.70;83.05;96490.66;5071632;28;20534;-63
2020/12/04 08:22:04;;;;;;;3.50;1.77;;;;;;;7.77;82.99;96490.94;5071512;28;20204;-64
2020/12/04 08:24:34;;;;;;;3.25;2.13;;;;;;;7.84;83.00;96481.31;5071739;28;20534;-63
2020/12/04 08:27:11;;;;;;;2.20;1.98;;;;;;;8.03;81.78;96490.25;5071230;28;20192;-62
2020/12/04 08:29:40;;;;;;;2.55;1.60;;;;;;;8.12;81.49;96506.28;5070978;28;20199;-63
2020/12/04 08:32:14;;;;;;;2.65;2.08;;;;;;;8.08;81.39;96512.91;5071810;28;20509;-62
2020/12/04 08:34:44;;;;;;;2.40;1.98;;;;;;;8.05;81.44;96515.03;5072940;28;20204;-64
2020/12/04 08:37:13;;;;;;;1.80;1.70;;;;;;;8.20;80.66;96507.34;5075586;28;20273;-63
2020/12/04 08:39:42;;;;;;;9.60;5.32;;;;;;;8.14;80.89;96495.41;5071386;28;20204;-63
2020/12/04 08:42:31;;;;;;;3.55;2.30;;;;;;;8.20;80.94;96499.31;5071919;28;20196;-63
2020/12/04 08:45:04;;;;;;;2.95;1.55;;;;;;;8.12;79.82;96500.91;5091773;28;20617;-62
2020/12/04 08:47:33;;;;;;;2.28;1.30;;;;;;;8.15;79.76;96508.66;5090129;28;20199;-64
2020/12/04 08:50:10;;;;;;;2.33;1.90;;;;;;;8.33;79.40;96511.34;5089972;28;20212;-63
2020/12/04 08:52:39;;;;;;;2.00;1.85;;;;;;;8.40;78.74;96514.31;5091039;28;20207;-63
2020/12/04 08:55:10;;;;;;;2.28;1.50;;;;;;;8.30;78.27;96518.88;5075184;28;20483;-64
2020/12/04 08:57:37;;;;;;;1.80;1.65;;;;;;;8.25;79.62;96523.81;5084016;28;20191;-64
2020/12/04 09:00:05;;;;;;;3.97;2.45;;;;;;;8.29;79.14;96533.25;5087813;28;20340;-64
2020/12/04 09:02:32;;;;;;;3.75;2.35;;;;;;;8.25;79.15;96539.91;5078803;28;20643;-64
2020/12/04 09:04:58;;;;;;;4.10;2.38;;;;;;;8.11;78.83;96542.09;5074956;28;20224;-63
2020/12/04 09:07:24;;;;;;;13.40;5.88;;;;;;;8.12;80.20;96538.44;5092016;28;20298;-64
2020/12/04 09:09:51;;;;;;;5.50;4.15;;;;;;;8.18;79.94;96533.47;5094398;28;20192;-63
2020/12/04 09:12:21;;;;;;;3.88;2.80;;;;;;;8.21;79.00;96527.78;5095134;28;20207;-63
2020/12/04 09:14:48;;;;;;;4.93;3.35;;;;;;;8.30;79.62;96533.13;5095360;28;20184;-63
2020/12/04 09:17:14;;;;;;;2.08;1.45;;;;;;;8.28;78.12;96528.91;5093938;28;20668;-63
2020/12/04 09:19:41;;;;;;;4.25;3.45;;;;;;;8.30;77.92;96529.59;5089310;28;20212;-63
2020/12/04 09:22:07;;;;;;;1.52;1.42;;;;;;;8.32;77.70;96522.22;5074418;28;20618;-63
2020/12/04 09:24:33;;;;;;;3.83;2.28;;;;;;;8.53;76.75;96520.16;5074568;28;20225;-62
2020/12/04 09:27:00;;;;;;;2.92;1.40;;;;;;;8.51;76.41;96515.94;5074709;28;20201;-64
2020/12/04 09:29:26;;;;;;;1.60;1.50;;;;;;;8.48;76.50;96526.94;5074837;28;20246;-62
2020/12/04 09:31:52;;;;;;;1.48;1.35;;;;;;;8.41;76.79;96531.22;5079395;28;20219;-62
2020/12/04 09:34:18;;;;;;;3.97;1.20;;;;;;;8.39;76.45;96528.69;5075676;28;20327;-62
2020/12/04 09:36:48;;;;;;;2.30;1.50;;;;;;;8.68;75.28;96528.53;5082439;28;20605;-63
2020/12/04 09:39:15;;;;;;;3.80;2.63;;;;;;;8.90;74.92;96535.25;5075084;28;20201;-63
2020/12/04 09:41:42;;;;;;;1.95;1.75;;;;;;;8.80;75.22;96531.84;5090346;28;20197;-64
2020/12/04 09:44:09;;;;;;;4.03;2.95;;;;;;;8.98;74.43;96530.00;5075837;28;20202;-63
2020/12/04 09:46:36;;;;;;;3.35;2.30;;;;;;;8.79;74.75;96537.34;5087437;28;20253;-62
2020/12/04 09:49:03;;;;;;;2.08;1.60;;;;;;;8.91;74.35;96546.84;5094730;28;20243;-62
2020/12/04 09:51:29;;;;;;;3.58;3.05;;;;;;;8.95;74.25;96543.72;5074207;28;20220;-63
2020/12/04 09:53:55;;;;;;;1.35;1.13;;;;;;;8.62;74.28;96525.63;5077714;28;20283;-62
2020/12/04 09:56:23;;;;;;;3.05;2.83;;;;;;;8.68;75.06;96536.59;5093786;28;20254;-62
2020/12/04 09:58:49;;;;;;;1.40;1.23;;;;;;;8.81;74.56;96535.34;5094613;28;20657;-61
2020/12/04 10:01:17;;;;;;;1.35;1.20;;;;;;;8.71;75.00;96548.84;5083286;28;20590;-63
2020/12/04 10:03:43;;;;;;;3.35;1.48;;;;;;;8.75;74.82;96555.56;5074187;28;20231;-62
2020/12/04 10:06:10;;;;;;;1.70;1.60;;;;;;;8.83;75.09;96549.47;5091799;28;20190;-62
2020/12/04 10:08:36;;;;;;;1.60;1.50;;;;;;;8.93;74.41;96552.88;5094277;28;20197;-62
2020/12/04 10:11:02;;;;;;;2.85;2.00;;;;;;;8.98;74.57;96554.13;5081375;28;20210;-63
2020/12/04 10:13:29;;;;;;;2.10;1.60;;;;;;;9.09;73.22;96555.75;5073760;28;20521;-63
2020/12/04 10:16:02;;;;;;;2.97;2.67;;;;;;;9.03;73.44;96563.56;5073968;28;20216;-62
2020/12/04 10:18:30;;;;;;;2.42;2.10;;;;;;;9.12;72.32;96541.19;5085592;28;20194;-62
2020/12/04 10:20:57;;;;;;;1.85;1.33;;;;;;;9.09;72.71;96538.78;5073134;28;20236;-63
2020/12/04 10:23:23;;;;;;;4.03;1.98;;;;;;;9.26;72.62;96539.78;5091856;28;20198;-62
2020/12/04 10:25:50;;;;;;;4.65;2.53;;;;;;;9.14;73.09;96539.19;5093876;28;20237;-63
2020/12/04 10:28:16;;;;;;;3.15;1.60;;;;;;;9.04;72.60;96541.94;5093868;28;20207;-63
2020/12/04 10:30:42;;;;;;;4.70;3.03;;;;;;;9.24;72.14;96557.88;5091944;28;20222;-62
2020/12/04 10:33:09;;;;;;;7.00;5.95;;;;;;;9.18;72.85;96557.50;5073490;28;20304;-63
2020/12/04 10:35:36;;;;;;;1.50;1.20;;;;;;;9.24;71.18;96550.66;5073643;28;20215;-63
2020/12/04 10:38:02;;;;;;;1.92;1.23;;;;;;;9.25;71.91;96535.38;5073117;28;20217;-63
2020/12/04 10:40:29;;;;;;;2.28;1.23;;;;;;;9.18;72.38;96541.41;5073208;28;20201;-63
2020/12/04 10:42:55;;;;;;;1.95;1.20;;;;;;;9.14;72.81;96549.91;5081662;28;20637;-63
2020/12/04 10:45:22;;;;;;;3.38;1.70;;;;;;;9.24;73.57;96553.34;5092897;28;20198;-63
2020/12/04 10:47:48;;;;;;;3.00;1.77;;;;;;;9.08;73.53;96556.72;5093064;28;20194;-62
2020/12/04 10:50:14;;;;;;;4.05;1.80;;;;;;;9.26;73.98;96559.41;5077391;28;20615;-63
2020/12/04 10:52:42;;;;;;;2.17;1.92;;;;;;;8.87;73.26;96553.53;5086150;28;20201;-63
2020/12/04 10:55:08;;;;;;;2.22;1.70;;;;;;;9.09;73.81;96552.19;5091274;28;20257;-63
2020/12/04 10:57:34;;;;;;;2.45;1.85;;;;;;;9.10;73.47;96541.31;5077198;28;20217;-63
2020/12/04 11:00:01;;;;;;;3.20;2.20;;;;;;;9.10;74.24;96549.38;5090626;28;20276;-63
2020/12/04 11:02:29;;;;;;;1.58;1.40;;;;;;;9.00;73.39;96547.75;5092095;28;20569;-62
2020/12/04 11:07:41;;;;;;;1.70;1.50;;;;;;;8.92;73.59;96562.78;5092642;28;20274;-63
2020/12/04 11:10:07;;;;;;;1.30;1.20;;;;;;;9.00;73.59;96556.69;5092348;28;20206;-64
2020/12/04 11:12:34;;;;;;;1.40;1.30;;;;;;;8.79;73.96;96548.91;5074526;28;20195;-63
2020/12/04 11:15:00;;;;;;;1.98;1.50;;;;;;;8.82;74.63;96548.63;5080074;28;20224;-62
2020/12/04 11:17:27;;;;;;;1.20;1.10;;;;;;;8.94;74.13;96550.06;5091847;28;20200;-62
2020/12/04 11:19:53;;;;;;;1.77;1.25;;;;;;;8.98;74.07;96548.78;5086717;28;20611;-63
2020/12/04 11:22:20;;;;;;;7.75;4.53;;;;;;;9.01;73.20;96541.41;5085365;28;20198;-63
2020/12/04 11:24:47;;;;;;;1.75;1.60;;;;;;;8.92;73.74;96530.59;5071768;28;20198;-63
2020/12/04 11:27:13;;;;;;;3.15;2.80;;;;;;;8.97;73.40;96525.59;5072320;28;20206;-62
2020/12/04 11:29:40;;;;;;;1.85;1.65;;;;;;;9.03;73.34;96526.84;5071774;28;20197;-63
2020/12/04 11:32:06;;;;;;;2.33;1.10;;;;;;;9.00;73.27;96526.28;5071258;28;20230;-62
2020/12/04 11:34:33;;;;;;;2.20;1.40;;;;;;;9.11;72.62;96539.47;5072217;28;20251;-62
2020/12/04 11:36:59;;;;;;;1.40;1.30;;;;;;;9.14;72.33;96541.88;5072115;28;20200;-62
2020/12/04 11:39:25;;;;;;;4.55;2.15;;;;;;;9.33;71.76;96532.78;5071899;28;20671;-62
2020/12/04 11:41:53;;;;;;;1.10;0.90;;;;;;;9.14;70.84;96536.50;5085975;28;20265;-63
2020/12/04 11:44:20;;;;;;;2.33;1.00;;;;;;;9.24;70.84;96533.72;5074911;28;20209;-64
2020/12/04 11:46:46;;;;;;;1.40;1.15;;;;;;;9.23;71.36;96532.88;5071852;28;20633;-62
2020/12/04 11:49:13;;;;;;;1.65;1.17;;;;;;;9.15;72.13;96535.47;5071759;28;20635;-62